createdAt,value
2018-11-10T00:00:30.491Z,126.13
2018-11-10T00:02:58.866Z,120.33
2018-11-10T00:05:27.268Z,117.43
2018-11-10T00:07:55.873Z,117.47
2018-11-10T00:10:24.343Z,128.10
2018-11-10T00:12:52.722Z,119.33
2018-11-10T00:15:21.098Z,123.57
2018-11-10T00:17:49.474Z,126.97
2018-11-10T00:20:17.866Z,124.90
2018-11-10T00:22:46.248Z,121.30
2018-11-10T00:25:14.990Z,120.40
2018-11-10T00:27:44.463Z,142.00
2018-11-10T00:30:14.006Z,128.87
2018-11-10T00:32:43.137Z,134.50
2018-11-10T00:35:11.579Z,132.40
2018-11-10T00:37:39.969Z,123.87
2018-11-10T00:40:09.123Z,133.67
2018-11-10T00:42:37.521Z,123.53
2018-11-10T00:45:06.105Z,121.13
2018-11-10T00:47:34.506Z,138.80
2018-11-10T00:50:02.930Z,127.53
2018-11-10T00:52:31.319Z,135.37
2018-11-10T00:54:59.713Z,134.37
2018-11-10T00:57:28.100Z,128.73
2018-11-10T00:59:56.503Z,124.13
2018-11-10T01:02:24.947Z,120.27
2018-11-10T01:04:53.571Z,124.23
2018-11-10T01:07:22.265Z,120.70
2018-11-10T01:09:50.739Z,112.60
2018-11-10T01:12:19.139Z,119.40
2018-11-10T01:14:47.519Z,126.27
2018-11-10T01:17:15.903Z,132.17
2018-11-10T01:19:44.507Z,137.70
2018-11-10T01:22:12.985Z,132.03
2018-11-10T01:24:41.355Z,142.40
2018-11-10T01:27:09.766Z,148.63
2018-11-10T01:29:38.346Z,127.37
2018-11-10T01:32:06.811Z,132.00
2018-11-10T01:34:35.209Z,119.47
2018-11-10T01:37:03.589Z,116.07
2018-11-10T01:39:32.167Z,117.37
2018-11-10T01:42:00.677Z,120.17
2018-11-10T01:44:29.066Z,119.30
2018-11-10T01:46:57.742Z,111.90
2018-11-10T01:49:26.440Z,121.53
2018-11-10T01:51:54.939Z,108.43
2018-11-10T01:54:23.529Z,112.43
2018-11-10T01:56:52.004Z,114.53
2018-11-10T01:59:20.393Z,112.27
2018-11-10T02:01:48.799Z,122.87
2018-11-10T02:04:17.178Z,115.43
2018-11-10T02:06:45.613Z,116.80
2018-11-10T02:09:13.962Z,122.03
2018-11-10T02:11:42.580Z,120.53
2018-11-10T02:14:11.046Z,121.90
2018-11-10T02:16:39.429Z,123.23
2018-11-10T02:19:07.814Z,123.87
2018-11-10T02:21:36.416Z,123.83
2018-11-10T02:24:04.971Z,111.93
2018-11-10T02:26:33.366Z,114.90
2018-11-10T02:29:01.751Z,108.67
2018-11-10T02:31:30.137Z,119.40
2018-11-10T02:33:58.533Z,102.87
2018-11-10T02:36:26.907Z,112.33
2018-11-10T02:38:55.506Z,114.07
2018-11-10T02:41:24.208Z,113.27
2018-11-10T02:43:52.670Z,110.80
2018-11-10T02:46:21.067Z,109.17
2018-11-10T02:48:49.454Z,107.57
2018-11-10T02:51:17.845Z,112.20
2018-11-10T02:53:46.239Z,109.50
2018-11-10T02:56:14.638Z,115.43
2018-11-10T02:58:43.026Z,108.17
2018-11-10T03:01:11.615Z,109.97
2018-11-10T03:03:40.120Z,104.77
2018-11-10T03:06:08.503Z,101.07
2018-11-10T03:08:36.879Z,123.47
2018-11-10T03:11:05.279Z,122.77
2018-11-10T03:13:33.662Z,127.87
2018-11-10T03:16:02.030Z,118.37
2018-11-10T03:18:30.437Z,121.97
2018-11-10T03:20:58.810Z,117.40
2018-11-10T03:23:27.204Z,115.47
2018-11-10T03:25:55.604Z,111.40
2018-11-10T03:28:24.015Z,103.27
2018-11-10T03:30:52.395Z,98.67
2018-11-10T03:33:20.778Z,101.03
2018-11-10T03:35:49.185Z,96.53
2018-11-10T03:38:17.547Z,104.27
2018-11-10T03:40:46.167Z,101.67
2018-11-10T03:43:14.640Z,98.00
2018-11-10T03:45:43.006Z,104.53
2018-11-10T03:48:11.408Z,106.17
2018-11-10T03:50:40.000Z,109.63
2018-11-10T03:53:08.471Z,121.50
2018-11-10T03:55:36.879Z,108.27
2018-11-10T03:58:05.256Z,122.53
2018-11-10T04:00:33.837Z,125.13
2018-11-10T04:03:02.535Z,121.53
2018-11-10T04:05:31.027Z,120.80
2018-11-10T04:07:59.414Z,125.13
2018-11-10T04:10:27.802Z,126.63
2018-11-10T04:12:56.414Z,120.00
2018-11-10T04:15:24.885Z,114.03
2018-11-10T04:17:53.278Z,123.80
2018-11-10T04:20:21.671Z,126.47
2018-11-10T04:22:50.259Z,119.17
2018-11-10T04:25:18.759Z,114.23
2018-11-10T04:27:47.164Z,118.30
2018-11-10T04:30:15.536Z,121.60
2018-11-10T04:32:44.135Z,131.97
2018-11-10T04:35:12.818Z,109.87
2018-11-10T04:37:41.493Z,119.07
2018-11-10T04:40:10.778Z,115.27
2018-11-10T04:42:39.438Z,116.57
2018-11-10T04:45:08.248Z,111.33
2018-11-10T04:47:36.730Z,116.57
2018-11-10T04:50:05.574Z,108.97
2018-11-10T04:52:33.971Z,98.63
2018-11-10T04:55:02.375Z,115.13
2018-11-10T04:57:30.747Z,113.23
2018-11-10T04:59:59.125Z,121.83
2018-11-10T05:02:27.532Z,119.30
2018-11-10T05:04:55.908Z,112.50
2018-11-10T05:07:24.306Z,111.37
2018-11-10T05:09:52.698Z,113.83
2018-11-10T05:12:21.076Z,116.37
2018-11-10T05:14:49.449Z,126.00
2018-11-10T05:17:17.845Z,107.30
2018-11-10T05:19:46.440Z,113.10
2018-11-10T05:22:14.911Z,106.53
2018-11-10T05:24:43.312Z,108.83
2018-11-10T05:27:11.684Z,101.43
2018-11-10T05:29:40.099Z,111.10
2018-11-10T05:32:13.607Z,101.10
2018-11-10T05:34:42.558Z,101.77
2018-11-10T05:37:10.936Z,107.07
2018-11-10T05:39:39.349Z,104.87
2018-11-10T05:42:07.759Z,111.03
2018-11-10T05:44:36.130Z,107.23
2018-11-10T05:47:04.534Z,99.97
2018-11-10T05:49:32.938Z,101.37
2018-11-10T05:52:01.330Z,102.90
2018-11-10T05:54:29.736Z,97.83
2018-11-10T05:56:58.367Z,101.93
2018-11-10T05:59:26.826Z,106.10
2018-11-10T06:01:55.223Z,100.50
2018-11-10T06:04:23.624Z,109.10
2018-11-10T06:06:52.240Z,99.07
2018-11-10T06:09:20.827Z,95.37
2018-11-10T06:11:49.109Z,88.23
2018-11-10T06:14:17.494Z,93.10
2018-11-10T06:16:46.097Z,97.20
2018-11-10T06:19:14.566Z,90.63
2018-11-10T06:21:42.988Z,98.77
2018-11-10T06:24:11.379Z,93.07
2018-11-10T06:26:39.975Z,86.47
2018-11-10T06:29:08.697Z,91.47
2018-11-10T06:31:37.215Z,84.43
2018-11-10T06:34:05.607Z,80.70
2018-11-10T06:36:33.994Z,87.47
2018-11-10T06:39:02.392Z,77.87
2018-11-10T06:41:31.082Z,84.00
2018-11-10T06:43:59.511Z,78.47
2018-11-10T06:46:28.109Z,81.63
2018-11-10T06:48:56.584Z,77.37
2018-11-10T06:51:24.984Z,73.87
2018-11-10T06:53:53.398Z,72.53
2018-11-10T06:56:21.816Z,72.10
2018-11-10T06:58:50.407Z,72.83
2018-11-10T07:01:23.966Z,72.10
2018-11-10T07:03:52.581Z,67.73
2018-11-10T07:06:21.038Z,72.57
2018-11-10T07:08:49.651Z,66.33
2018-11-10T07:11:18.445Z,78.37
2018-11-10T07:13:47.342Z,72.93
2018-11-10T07:16:15.814Z,74.63
2018-11-10T07:18:44.192Z,71.17
2018-11-10T07:21:12.607Z,73.40
2018-11-10T07:23:41.019Z,75.57
2018-11-10T07:26:09.394Z,67.03
2018-11-10T07:28:38.982Z,72.57
2018-11-10T07:31:07.390Z,75.47
2018-11-10T07:33:35.991Z,74.57
2018-11-10T07:36:04.848Z,75.27
2018-11-10T07:38:33.338Z,69.63
2018-11-10T07:41:01.937Z,67.60
2018-11-10T07:43:30.411Z,71.60
2018-11-10T07:45:59.087Z,61.10
2018-11-10T07:48:27.767Z,60.07
2018-11-10T07:50:56.407Z,62.30
2018-11-10T07:53:24.808Z,56.63
2018-11-10T07:55:53.210Z,57.63
2018-11-10T07:58:21.783Z,60.73
2018-11-10T08:00:50.555Z,64.53
2018-11-10T08:03:19.688Z,59.23
2018-11-10T08:05:48.286Z,57.23
2018-11-10T08:08:17.382Z,58.37
2018-11-10T08:10:45.826Z,56.80
2018-11-10T08:13:14.247Z,53.47
2018-11-10T08:15:42.666Z,52.90
2018-11-10T08:18:11.046Z,50.37
2018-11-10T08:20:39.447Z,52.97
2018-11-10T08:23:07.958Z,47.10
2018-11-10T08:25:36.546Z,47.60
2018-11-10T08:28:05.271Z,46.93
2018-11-10T08:30:33.666Z,43.57
2018-11-10T08:33:02.280Z,45.50
2018-11-10T08:35:30.761Z,49.73
2018-11-10T08:37:59.274Z,43.07
2018-11-10T08:40:27.892Z,42.10
2018-11-10T08:42:56.605Z,41.30
2018-11-10T08:45:25.096Z,41.40
2018-11-10T08:47:53.478Z,39.93
2018-11-10T08:50:21.864Z,43.13
2018-11-10T08:52:50.262Z,45.93
2018-11-10T08:55:18.638Z,42.17
2018-11-10T08:57:47.021Z,43.43
2018-11-10T09:00:15.430Z,36.07
2018-11-10T09:02:43.830Z,36.90
2018-11-10T09:05:12.851Z,41.80
2018-11-10T09:07:41.773Z,37.80
2018-11-10T09:10:11.270Z,44.60
2018-11-10T09:12:39.934Z,53.30
2018-11-10T09:15:10.961Z,52.13
2018-11-10T09:17:39.324Z,56.23
2018-11-10T09:20:09.781Z,58.10
2018-11-10T09:22:38.377Z,53.30
2018-11-10T09:25:07.521Z,49.13
2018-11-10T09:27:51.064Z,44.20
2018-11-10T09:30:19.755Z,45.10
2018-11-10T09:32:48.450Z,40.23
2018-11-10T09:35:16.946Z,40.60
2018-11-10T09:37:45.843Z,37.40
2018-11-10T09:40:15.527Z,41.00
2018-11-10T09:42:44.204Z,32.63
2018-11-10T09:45:13.662Z,32.43
2018-11-10T09:47:42.311Z,34.40
2018-11-10T09:50:12.211Z,29.60
2018-11-10T09:52:41.055Z,32.83
2018-11-10T09:55:09.454Z,32.70
2018-11-10T09:57:38.417Z,29.47
2018-11-10T10:00:17.152Z,29.53
2018-11-10T10:02:46.147Z,29.03
2018-11-10T10:05:14.262Z,26.40
2018-11-10T10:07:43.599Z,24.63
2018-11-10T10:10:13.939Z,25.50
2018-11-10T10:12:43.111Z,24.07
2018-11-10T10:15:13.135Z,22.00
2018-11-10T10:17:42.865Z,24.80
2018-11-10T10:20:13.334Z,21.83
2018-11-10T10:22:42.181Z,24.17
2018-11-10T10:25:12.091Z,21.43
2018-11-10T10:27:40.892Z,23.50
2018-11-10T10:30:11.263Z,26.97
2018-11-10T10:32:39.972Z,26.13
2018-11-10T10:35:08.779Z,27.00
2018-11-10T10:37:37.135Z,23.77
2018-11-10T10:40:06.138Z,27.40
2018-11-10T10:42:34.819Z,28.87
2018-11-10T10:45:03.421Z,24.20
2018-11-10T10:47:31.813Z,25.90
2018-11-10T10:50:00.190Z,26.70
2018-11-10T10:52:28.815Z,26.90
2018-11-10T10:54:57.299Z,25.90
2018-11-10T10:57:25.903Z,21.70
2018-11-10T10:59:54.590Z,22.33
2018-11-10T11:02:28.573Z,21.00
2018-11-10T11:04:58.762Z,25.00
2018-11-10T11:07:27.140Z,23.73
2018-11-10T11:09:55.747Z,21.33
2018-11-10T11:12:24.273Z,25.03
2018-11-10T11:14:52.860Z,20.80
2018-11-10T11:17:21.360Z,24.77
2018-11-10T11:19:49.734Z,24.50
2018-11-10T11:22:18.151Z,21.23
2018-11-10T11:24:46.776Z,21.00
2018-11-10T11:27:15.242Z,21.73
2018-11-10T11:29:43.846Z,20.70
2018-11-10T11:32:12.539Z,23.67
2018-11-10T11:34:41.015Z,20.90
2018-11-10T11:37:09.391Z,20.63
2018-11-10T11:39:37.778Z,22.87
2018-11-10T11:42:06.222Z,22.10
2018-11-10T11:44:34.603Z,23.13
2018-11-10T11:47:02.995Z,20.00
2018-11-10T11:49:31.370Z,22.43
2018-11-10T11:52:00.048Z,23.30
2018-11-10T11:54:28.522Z,22.03
2018-11-10T11:56:57.114Z,23.07
2018-11-10T11:59:25.807Z,23.43
2018-11-10T12:01:54.398Z,20.70
2018-11-10T12:04:22.785Z,19.30
2018-11-10T12:06:51.127Z,21.73
2018-11-10T12:09:19.527Z,21.20
2018-11-10T12:11:48.216Z,22.93
2018-11-10T12:14:16.904Z,24.23
2018-11-10T12:16:45.470Z,21.70
2018-11-10T12:19:13.812Z,19.17
2018-11-10T12:21:42.420Z,20.87
2018-11-10T12:24:11.203Z,21.17
2018-11-10T12:26:39.744Z,19.47
2018-11-10T12:29:08.355Z,20.67
2018-11-10T12:31:37.063Z,18.53
2018-11-10T12:34:05.735Z,17.20
2018-11-10T12:36:34.335Z,16.27
2018-11-10T12:39:02.859Z,14.93
2018-11-10T12:41:31.254Z,17.80
2018-11-10T12:43:59.868Z,16.10
2018-11-10T12:46:28.601Z,18.47
2018-11-10T12:48:57.158Z,16.50
2018-11-10T12:51:25.878Z,15.87
2018-11-10T12:53:54.588Z,14.23
2018-11-10T12:56:23.100Z,19.37
2018-11-10T12:58:52.435Z,19.13
2018-11-10T13:01:20.862Z,17.33
2018-11-10T13:03:49.574Z,17.23
2018-11-10T13:06:18.186Z,16.50
2018-11-10T13:08:46.880Z,17.33
2018-11-10T13:11:15.558Z,21.00
2018-11-10T13:13:44.113Z,21.63
2018-11-10T13:16:12.820Z,19.00
2018-11-10T13:18:41.286Z,22.73
2018-11-10T13:21:10.020Z,22.40
2018-11-10T13:23:38.747Z,20.23
2018-11-10T13:26:07.212Z,20.87
2018-11-10T13:28:35.831Z,27.57
2018-11-10T13:31:04.414Z,22.07
2018-11-10T13:33:32.933Z,24.60
2018-11-10T13:36:01.416Z,26.00
2018-11-10T13:38:30.023Z,24.33
2018-11-10T13:40:58.516Z,24.00
2018-11-10T13:43:27.153Z,22.87
2018-11-10T13:45:55.586Z,26.17
2018-11-10T13:48:24.424Z,26.60
2018-11-10T13:50:58.105Z,28.17
2018-11-10T13:53:26.479Z,30.93
2018-11-10T13:55:55.249Z,28.93
2018-11-10T13:58:23.690Z,29.23
2018-11-10T14:00:52.071Z,30.30
2018-11-10T14:03:20.455Z,31.73
2018-11-10T14:05:48.859Z,29.10
2018-11-10T14:08:17.343Z,29.73
2018-11-10T14:10:51.015Z,31.47
2018-11-10T14:13:19.478Z,37.67
2018-11-10T14:15:48.065Z,31.37
2018-11-10T14:18:16.778Z,28.47
2018-11-10T14:20:45.324Z,29.00
2018-11-10T14:23:13.880Z,32.17
2018-11-10T14:25:42.375Z,31.67
2018-11-10T14:28:10.775Z,29.33
2018-11-10T14:30:39.201Z,32.20
2018-11-10T14:33:07.607Z,34.60
2018-11-10T14:35:36.208Z,30.47
2018-11-10T14:38:04.875Z,36.57
2018-11-10T14:40:33.344Z,34.60
2018-11-10T14:43:01.732Z,37.53
2018-11-10T14:45:30.151Z,36.90
2018-11-10T14:47:58.557Z,35.30
2018-11-10T14:50:27.155Z,35.43
2018-11-10T14:52:55.735Z,37.60
2018-11-10T14:55:24.269Z,39.63
2018-11-10T14:57:52.875Z,42.60
2018-11-10T15:00:26.827Z,37.07
2018-11-10T15:02:55.209Z,41.53
2018-11-10T15:05:23.648Z,35.20
2018-11-10T15:07:52.239Z,40.67
2018-11-10T15:10:20.723Z,42.33
2018-11-10T15:12:49.128Z,38.17
2018-11-10T15:15:18.387Z,37.70
2018-11-10T15:17:47.091Z,42.27
2018-11-10T15:20:17.158Z,41.93
2018-11-10T15:22:50.627Z,41.00
2018-11-10T15:25:20.580Z,43.83
2018-11-10T15:27:48.966Z,41.53
2018-11-10T15:30:19.696Z,39.37
2018-11-10T15:32:48.795Z,45.93
2018-11-10T15:35:18.596Z,45.07
2018-11-10T15:37:48.336Z,43.87
2018-11-10T15:40:17.585Z,47.73
2018-11-10T15:42:46.363Z,42.97
2018-11-10T15:45:16.084Z,46.07
2018-11-10T15:47:45.066Z,48.60
2018-11-10T15:50:14.875Z,47.27
2018-11-10T15:52:43.275Z,50.20
2018-11-10T15:55:12.615Z,49.37
2018-11-10T15:57:41.561Z,52.93
2018-11-10T16:00:11.915Z,47.50
2018-11-10T16:02:40.978Z,48.03
2018-11-10T16:05:10.160Z,47.23
2018-11-10T16:07:39.137Z,48.47
2018-11-10T16:10:07.644Z,50.30
2018-11-10T16:12:36.358Z,49.47
2018-11-10T16:15:05.568Z,48.03
2018-11-10T16:17:34.167Z,48.30
2018-11-10T16:20:02.963Z,50.20
2018-11-10T16:22:31.490Z,53.53
2018-11-10T16:25:00.092Z,53.43
2018-11-10T16:27:28.788Z,45.87
2018-11-10T16:29:57.275Z,48.83
2018-11-10T16:32:25.717Z,50.43
2018-11-10T16:34:54.299Z,53.97
2018-11-10T16:37:23.085Z,50.53
2018-11-10T16:39:51.470Z,49.20
2018-11-10T16:42:19.947Z,52.87
2018-11-10T16:44:48.613Z,48.93
2018-11-10T16:47:17.254Z,46.47
2018-11-10T16:49:45.928Z,48.43
2018-11-10T16:52:14.616Z,52.63
2018-11-10T16:54:43.304Z,50.80
2018-11-10T16:57:12.006Z,46.10
2018-11-10T16:59:40.715Z,43.77
2018-11-10T17:02:09.210Z,45.13
2018-11-10T17:04:37.606Z,46.37
2018-11-10T17:07:06.223Z,47.90
2018-11-10T17:09:34.907Z,46.03
2018-11-10T17:12:03.462Z,46.83
2018-11-10T17:14:32.125Z,48.50
2018-11-10T17:17:00.534Z,48.67
2018-11-10T17:19:29.131Z,47.40
2018-11-10T17:21:57.856Z,45.43
2018-11-10T17:24:26.306Z,45.43
2018-11-10T17:26:55.004Z,42.37
2018-11-10T17:29:23.519Z,51.57
2018-11-10T17:31:51.940Z,47.50
2018-11-10T17:34:20.531Z,42.60
2018-11-10T17:36:49.233Z,41.07
2018-11-10T17:39:17.773Z,41.53
2018-11-10T17:41:46.162Z,42.00
2018-11-10T17:44:14.710Z,44.43
2018-11-10T17:46:43.128Z,44.43
2018-11-10T17:49:11.526Z,44.03
2018-11-10T17:51:39.922Z,41.53
2018-11-10T17:54:08.298Z,40.37
2018-11-10T17:56:36.892Z,40.77
2018-11-10T17:59:05.374Z,42.17
2018-11-10T18:01:33.837Z,45.77
2018-11-10T18:04:02.809Z,40.33
2018-11-10T18:06:31.223Z,46.55
2018-11-10T18:08:59.609Z,39.13
2018-11-10T18:11:27.983Z,42.97
2018-11-10T18:13:56.603Z,44.90
2018-11-10T18:16:25.117Z,42.10
2018-11-10T18:18:53.497Z,41.57
2018-11-10T18:21:22.819Z,41.33
2018-11-10T18:23:51.186Z,39.83
2018-11-10T18:26:19.814Z,40.37
2018-11-10T18:28:48.250Z,41.10
2018-11-10T18:31:16.939Z,45.03
2018-11-10T18:33:45.414Z,48.17
2018-11-10T18:36:13.827Z,39.73
2018-11-10T18:38:42.416Z,52.00
2018-11-10T18:41:11.150Z,43.57
2018-11-10T18:43:39.838Z,40.10
2018-11-10T18:46:08.313Z,34.90
2018-11-10T18:48:36.691Z,34.77
2018-11-10T18:51:05.088Z,37.33
2018-11-10T18:53:33.498Z,38.57
2018-11-10T18:56:01.876Z,35.10
2018-11-10T18:58:30.482Z,39.00
2018-11-10T19:00:58.963Z,35.60
2018-11-10T19:03:27.363Z,33.00
2018-11-10T19:05:55.813Z,35.50
2018-11-10T19:08:24.194Z,34.20
2018-11-10T19:10:52.811Z,33.17
2018-11-10T19:13:21.317Z,32.80
2018-11-10T19:15:49.703Z,32.77
2018-11-10T19:18:18.084Z,33.97
2018-11-10T19:20:46.787Z,31.70
2018-11-10T19:23:15.239Z,35.23
2018-11-10T19:25:43.629Z,28.87
2018-11-10T19:28:12.053Z,30.43
2018-11-10T19:30:40.663Z,28.80
2018-11-10T19:33:09.383Z,32.17
2018-11-10T19:35:38.119Z,31.33
2018-11-10T19:38:06.828Z,29.03
2018-11-10T19:40:35.332Z,28.90
2018-11-10T19:43:03.868Z,27.23
2018-11-10T19:45:32.255Z,28.97
2018-11-10T19:48:00.851Z,36.13
2018-11-10T19:50:29.416Z,24.67
2018-11-10T19:52:57.726Z,27.93
2018-11-10T19:55:26.112Z,26.83
2018-11-10T19:57:54.540Z,26.27
2018-11-10T20:00:24.126Z,27.10
2018-11-10T20:02:52.852Z,27.90
2018-11-10T20:05:21.360Z,25.50
2018-11-10T20:07:49.801Z,28.97
2018-11-10T20:10:18.391Z,28.47
2018-11-10T20:12:47.431Z,27.73
2018-11-10T20:15:16.698Z,22.70
2018-11-10T20:17:45.652Z,25.03
2018-11-10T20:20:15.615Z,26.03
2018-11-10T20:22:44.379Z,24.60
2018-11-10T20:25:14.338Z,24.37
2018-11-10T20:27:42.823Z,24.83
2018-11-10T20:30:13.896Z,23.53
2018-11-10T20:32:42.678Z,22.50
2018-11-10T20:35:12.034Z,22.93
2018-11-10T20:37:41.411Z,22.83
2018-11-10T20:40:11.120Z,23.70
2018-11-10T20:42:39.919Z,22.30
2018-11-10T20:45:09.097Z,23.67
2018-11-10T20:47:37.691Z,21.47
2018-11-10T20:50:06.111Z,21.83
2018-11-10T20:52:36.796Z,23.43
2018-11-10T20:55:06.315Z,24.30
2018-11-10T20:57:35.426Z,22.17
2018-11-10T21:00:04.536Z,19.20
2018-11-10T21:02:32.939Z,22.10
2018-11-10T21:05:01.330Z,20.20
2018-11-10T21:07:29.725Z,22.13
2018-11-10T21:09:58.432Z,19.83
2018-11-10T21:12:27.162Z,17.93
2018-11-10T21:14:55.642Z,17.13
2018-11-10T21:17:24.021Z,21.40
2018-11-10T21:19:52.426Z,19.00
2018-11-10T21:22:20.790Z,20.00
2018-11-10T21:24:49.171Z,19.73
2018-11-10T21:27:17.770Z,18.37
2018-11-10T21:29:46.522Z,17.63
2018-11-10T21:32:14.930Z,17.50
2018-11-10T21:34:43.343Z,22.97
2018-11-10T21:37:11.731Z,17.23
2018-11-10T21:39:40.323Z,19.83
2018-11-10T21:42:08.815Z,19.27
2018-11-10T21:44:37.188Z,19.73
2018-11-10T21:47:05.639Z,19.13
2018-11-10T21:49:34.353Z,16.90
2018-11-10T21:52:02.955Z,20.13
2018-11-10T21:54:31.431Z,20.30
2018-11-10T21:56:59.831Z,15.90
2018-11-10T21:59:28.207Z,18.67
2018-11-10T22:01:56.690Z,17.93
2018-11-10T22:04:25.264Z,17.57
2018-11-10T22:06:53.742Z,17.80
2018-11-10T22:09:22.278Z,16.30
2018-11-10T22:11:50.507Z,18.80
2018-11-10T22:14:19.110Z,18.43
2018-11-10T22:16:47.587Z,15.47
2018-11-10T22:19:15.975Z,16.60
2018-11-10T22:21:44.354Z,17.07
2018-11-10T22:24:12.721Z,16.63
2018-11-10T22:26:41.106Z,18.47
2018-11-10T22:29:09.490Z,15.40
2018-11-10T22:31:37.876Z,17.13
2018-11-10T22:34:06.271Z,16.00
2018-11-10T22:36:34.837Z,14.97
2018-11-10T22:39:03.619Z,16.53
2018-11-10T22:41:32.011Z,15.17
2018-11-10T22:44:00.395Z,17.37
2018-11-10T22:46:28.769Z,17.57
2018-11-10T22:48:57.179Z,16.63
2018-11-10T22:51:25.572Z,18.07
2018-11-10T22:53:53.944Z,19.60
2018-11-10T22:56:22.355Z,16.93
2018-11-10T22:58:50.945Z,17.73
2018-11-10T23:01:19.410Z,19.50
2018-11-10T23:03:47.848Z,18.10
2018-11-10T23:06:16.184Z,19.60
2018-11-10T23:08:44.570Z,19.60
2018-11-10T23:11:12.971Z,18.90
2018-11-10T23:13:41.356Z,18.17
2018-11-10T23:16:09.739Z,19.47
2018-11-10T23:18:38.134Z,20.63
2018-11-10T23:21:06.524Z,17.30
2018-11-10T23:23:34.955Z,17.40
2018-11-10T23:26:03.273Z,18.77
2018-11-10T23:28:31.647Z,19.97
2018-11-10T23:31:00.029Z,16.50
2018-11-10T23:33:28.418Z,18.97
2018-11-10T23:35:56.811Z,19.57
2018-11-10T23:38:25.191Z,18.13
2018-11-10T23:40:53.626Z,16.97
2018-11-10T23:43:22.011Z,18.40
2018-11-10T23:45:50.392Z,18.93
2018-11-10T23:48:18.995Z,17.13
2018-11-10T23:50:47.467Z,16.70
2018-11-10T23:53:15.846Z,18.03
2018-11-10T23:55:44.238Z,16.43
2018-11-10T23:58:12.612Z,19.10
